GORO2: Illinois River, Gore, OK

Data processed at Sat Jan 12 2019 23:32


All information presented herein is the property of the government of the United States of America and may be revised or deleted at any time without prior notice.
Dissemination of this information without the expressed written consent of the Public Affairs Office, Tulsa District U.S. Army Corps of Engineers is strictly prohibited.
These data are gathered electronically and, as presented, have not undergone any form of quality control. These data are not guaranteed to be valid or correct.
Go to home page.
Go to station list.
Go to home page.

Upstream stations:

Downstream station:
Previous Day
Next Day
Current Day
    
SHEF ID:       GORO2     Illinois River near Gore, OK
STATION TYPE:  

               PRECIP PRECIP(A)     STAGE  STAGE(2)  RIV-FLOW  WTR-TEMP   DIS-OXY   VOLTAGE  BAT-LOAD
                   in        in        ft        ft       cfs         F      mg/l      volt      volt
              Ccp-Rev   Ccp-Rev   Ccp-Rev   Ccp-Rev   Ccp-Rev   Ccp-Rev   Ccp-Rev   Ccp-Rev   Ccp-Rev
(US/Central)
01/12 00:00      0.06      ----     12.49     12.48      5333     48.07     11.84      ----      ----
01/12 01:00      0.02      ----     12.48     12.48      5316     48.06     11.83      ----      ----
01/12 02:00      0.07      ----     12.49     12.49      5333     48.04     11.83      ----      ----
01/12 03:00      0.07      ----     12.51     12.50      5366     48.02     11.82      ----      ----
01/12 04:00      0.00      ----     12.50     12.50      5350     48.02     11.81      ----      ----
01/12 05:00      0.00      ----     12.51     12.51      5366     48.00     11.82      ----      ----
01/12 06:00      0.00      ----     12.52     12.52      5383     47.98     11.81      ----      ----
01/12 07:00      0.00      ----     12.54     12.54      5415     47.98     11.81      ----      ----
01/12 08:00      0.00      ----     12.57     12.55      5464     47.98     11.81      ----      ----
01/12 09:00      0.00      ----     12.55     12.56      5432     48.00     11.84      ----      ----
01/12 10:00      0.00      ----     12.56     12.55      5448     48.02     11.87      ----      ----
01/12 11:00      0.01      ----     12.55     12.55      5432     48.02     11.87      ----      ----
01/12 12:00      0.00      ----     12.56     12.56      5448     48.04     11.91      ----      ----
01/12 13:00      0.00      ----     12.57     12.57      5464     48.09     11.94      ----      ----
01/12 14:00      0.01      ----     12.56     12.56      5448     48.06     11.92      ----      ----
01/12 15:00      0.00      ----     12.56     12.56      5448     48.02     11.91      ----      ----
01/12 16:00      0.00      ----     12.55     12.56      5432     47.98     11.89      ----      ----
01/12 17:00      0.00      ----     12.55     12.55      5432     47.97     11.88      ----      ----
01/12 18:00      0.00      ----     12.54     12.54      5415     47.95     11.88      ----      ----
01/12 19:00      0.00      ----     12.54     12.54      5415     47.93     11.89      ----      ----
01/12 20:00      0.00      ----     12.53     12.53      5399     47.91     11.90      ----      ----
01/12 21:00      0.00      ----     12.54     12.54      5415     47.91     11.91      ----      ----
01/12 22:00      0.00      ----     12.53     12.53      5399     47.91     11.92      ----      ----
01/12 23:00      ----      ----      ----      ----      ----      ----      ----      ----      ----